Time;durP1;ratioP1;P1;durP2;ratioP2;P2;SDS_P1;SDS_P2;PMS_P1;PMS_P2;Temp;Humidity;BMP_temperature;BMP_pressure;BME280_temperature;BME280_humidity;BME280_pressure;Samples;Min_cycle;Max_cycle;Signal;HPM_P1;HPM_P2
2023/08/11 00:02:20;;;;;;;3.43;1.30;;;;;;;23.13;64.05;101062.28;10293215;28;96696;-80
2023/08/11 00:07:26;;;;;;;1.70;1.15;;;;;;;23.20;63.52;101066.19;10292829;28;96700;-80
2023/08/11 00:12:30;;;;;;;3.58;1.20;;;;;;;23.24;63.53;101064.97;10330322;28;96895;-80
2023/08/11 00:17:35;;;;;;;4.53;1.33;;;;;;;23.13;63.98;101056.91;10333405;28;96683;-80
2023/08/11 00:22:38;;;;;;;2.85;1.20;;;;;;;23.42;62.99;101061.66;10333397;28;97163;-80
2023/08/11 00:27:42;;;;;;;1.98;1.00;;;;;;;23.19;63.49;101064.47;10332685;28;96821;-80
2023/08/11 00:32:49;;;;;;;4.97;1.60;;;;;;;23.24;63.46;101057.75;10333153;28;96684;-80
2023/08/11 00:37:52;;;;;;;3.80;1.60;;;;;;;23.15;63.54;101054.94;10332535;28;96791;-80
2023/08/11 00:42:56;;;;;;;3.13;1.10;;;;;;;22.61;65.21;101042.13;10332025;28;96716;-80
2023/08/11 00:48:01;;;;;;;2.80;1.30;;;;;;;22.70;64.93;101040.56;10340658;28;96864;-80
2023/08/11 00:53:05;;;;;;;3.55;1.20;;;;;;;22.87;64.29;101042.81;10373305;28;97382;-80
2023/08/11 00:58:11;;;;;;;2.55;1.33;;;;;;;22.87;64.38;101040.13;10373573;28;96650;-80
2023/08/11 01:03:18;;;;;;;2.55;1.10;;;;;;;22.86;64.10;101043.81;10371626;28;97741;-80
2023/08/11 01:08:30;;;;;;;4.22;1.33;;;;;;;22.92;64.34;101046.00;10373330;28;97280;-80
2023/08/11 01:13:39;;;;;;;2.95;1.40;;;;;;;22.81;64.63;101040.63;10373106;28;96761;-80
2023/08/11 01:18:44;;;;;;;4.22;1.42;;;;;;;22.67;64.79;101039.94;10372251;28;97096;-80
2023/08/11 01:23:49;;;;;;;4.40;1.40;;;;;;;22.34;65.99;101028.16;10372432;28;97269;-80
2023/08/11 01:28:54;;;;;;;2.78;1.48;;;;;;;21.99;67.06;101015.66;10372157;28;96677;-80
2023/08/11 01:33:57;;;;;;;2.63;1.08;;;;;;;22.31;66.03;101014.13;10370759;28;97601;-80
2023/08/11 01:39:04;;;;;;;2.65;1.70;;;;;;;22.61;65.07;101012.63;10373246;28;96833;-80
2023/08/11 01:44:08;;;;;;;2.47;1.38;;;;;;;22.97;63.83;101021.50;10372510;28;96883;-80
2023/08/11 01:49:12;;;;;;;3.88;1.35;;;;;;;22.85;64.10;101020.66;10371395;28;97604;-80
2023/08/11 01:54:17;;;;;;;;;;;;;;;22.47;65.65;101015.50;10333673;28;96713;-80
2023/08/11 01:59:21;;;;;;;1.80;1.10;;;;;;;22.57;64.96;101011.13;10330688;28;96742;-80
2023/08/11 02:04:24;;;;;;;2.10;1.30;;;;;;;22.63;64.79;101001.75;10330005;28;96758;-80
2023/08/11 02:09:29;;;;;;;3.80;1.40;;;;;;;22.63;64.61;101002.63;10330233;28;96680;-80
2023/08/11 02:14:34;;;;;;;1.50;1.00;;;;;;;22.53;64.77;101008.81;10330060;28;97137;-80
2023/08/11 02:19:37;;;;;;;1.60;1.13;;;;;;;22.48;65.10;101006.50;10330137;28;97697;-80
2023/08/11 02:24:44;;;;;;;5.45;1.23;;;;;;;22.10;66.16;101011.25;10330098;28;96736;-80
2023/08/11 02:29:49;;;;;;;3.28;1.25;;;;;;;22.20;65.48;101004.22;10330410;28;97130;-80
2023/08/11 02:34:52;;;;;;;2.30;1.20;;;;;;;22.10;65.85;101000.53;10329392;28;97383;-80
2023/08/11 02:39:58;;;;;;;2.95;1.27;;;;;;;22.23;65.48;101008.50;10329531;28;96651;-80
2023/08/11 02:45:01;;;;;;;1.98;1.52;;;;;;;22.20;65.30;101003.34;10335065;28;96902;-80
2023/08/11 02:50:05;;;;;;;5.43;1.97;;;;;;;22.08;65.86;101010.50;10336000;28;96872;-80
2023/08/11 02:55:12;;;;;;;3.30;1.50;;;;;;;22.08;65.81;101007.81;10335971;28;96770;-80
2023/08/11 03:00:16;;;;;;;2.55;1.30;;;;;;;21.89;66.35;101009.25;10336622;28;96786;-80
2023/08/11 03:05:20;;;;;;;4.22;1.65;;;;;;;21.94;66.34;101009.78;10335664;28;96765;-80
2023/08/11 03:10:25;;;;;;;3.13;1.30;;;;;;;21.91;66.26;101018.91;10335516;28;96641;-80
2023/08/11 03:15:29;;;;;;;2.38;1.50;;;;;;;21.94;66.31;101007.94;10336060;28;96756;-80
2023/08/11 03:20:32;;;;;;;2.30;1.38;;;;;;;21.97;66.23;101005.03;10336238;28;97588;-80
2023/08/11 03:25:37;;;;;;;3.72;1.20;;;;;;;21.83;66.56;100999.00;10335533;28;97281;-80
2023/08/11 03:30:40;;;;;;;3.53;1.45;;;;;;;21.77;66.75;101003.00;10334833;28;96769;-80
2023/08/11 03:35:43;;;;;;;2.88;1.35;;;;;;;21.64;67.12;100999.50;10334036;28;97042;-80
2023/08/11 03:40:49;;;;;;;2.72;1.83;;;;;;;21.59;67.36;100996.28;10339950;28;96795;-80
2023/08/11 03:45:52;;;;;;;3.30;1.52;;;;;;;21.68;67.02;101000.97;10376004;28;96703;-80
2023/08/11 03:51:00;;;;;;;3.55;1.27;;;;;;;21.54;67.54;101001.13;10370305;28;97009;-80
2023/08/11 03:56:07;;;;;;;3.88;1.55;;;;;;;21.55;67.46;101000.19;10334218;28;96645;-80
2023/08/11 04:01:12;;;;;;;2.88;1.58;;;;;;;21.47;67.76;101006.09;10332552;28;96955;-80
2023/08/11 04:06:16;;;;;;;3.08;1.65;;;;;;;21.47;67.61;101011.44;10327982;28;96707;-80
2023/08/11 04:11:20;;;;;;;2.85;1.30;;;;;;;21.45;67.51;101001.81;10334405;28;96723;-80
2023/08/11 04:16:24;;;;;;;4.13;1.60;;;;;;;21.37;67.90;101005.06;10333778;28;96531;-80
2023/08/11 04:21:28;;;;;;;3.50;1.20;;;;;;;21.41;67.58;101000.34;10333655;28;96844;-80
2023/08/11 04:26:33;;;;;;;2.57;1.43;;;;;;;21.33;67.52;101006.22;10332786;28;96753;-80
2023/08/11 04:31:36;;;;;;;2.45;1.30;;;;;;;21.43;67.40;101006.44;10332895;28;96739;-80
2023/08/11 04:36:41;;;;;;;2.20;1.40;;;;;;;21.19;68.12;101014.38;10333250;28;97014;-80
2023/08/11 04:41:46;;;;;;;3.25;1.52;;;;;;;21.44;68.00;101009.00;10359168;28;96700;-80
2023/08/11 04:46:49;;;;;;;1.95;1.30;;;;;;;21.51;67.79;101014.75;10415853;28;97978;-80
2023/08/11 04:51:52;;;;;;;2.70;1.70;;;;;;;21.65;67.30;101013.75;10415579;28;97522;-80
2023/08/11 04:56:57;;;;;;;4.45;1.48;;;;;;;21.74;66.99;101011.25;10412187;28;97298;-80
2023/08/11 05:02:01;;;;;;;4.18;1.77;;;;;;;21.85;66.62;101014.00;10333060;28;97506;-80
2023/08/11 05:07:06;;;;;;;4.13;1.60;;;;;;;21.93;66.66;101014.28;10330693;28;97210;-80
2023/08/11 05:12:12;;;;;;;3.05;1.70;;;;;;;21.95;66.69;101014.19;10331745;28;96826;-80
2023/08/11 05:17:15;;;;;;;3.58;1.70;;;;;;;21.90;66.54;101017.19;10331354;28;97079;-80
2023/08/11 05:22:18;;;;;;;3.35;1.63;;;;;;;21.82;67.04;101018.72;10331494;28;96682;-79
2023/08/11 05:27:23;;;;;;;2.58;1.75;;;;;;;21.60;67.54;101029.31;10331491;28;96748;-80
2023/08/11 05:32:29;;;;;;;2.13;1.63;;;;;;;21.53;67.80;101028.91;10331776;28;97470;-80
2023/08/11 05:37:33;;;;;;;4.13;1.50;;;;;;;21.31;68.46;101028.75;10331395;28;96706;-80
2023/08/11 05:42:40;;;;;;;4.30;1.90;;;;;;;21.31;68.13;101032.25;10354335;28;96818;-80
2023/08/11 05:47:43;;;;;;;2.50;1.60;;;;;;;21.53;67.59;101034.25;10371234;28;96724;-80
2023/08/11 05:52:46;;;;;;;3.33;1.60;;;;;;;21.27;67.99;101044.16;10372564;28;96771;-80
2023/08/11 05:57:53;;;;;;;3.00;1.55;;;;;;;21.22;68.36;101050.81;10371875;28;97709;-80
2023/08/11 06:02:56;;;;;;;2.33;1.33;;;;;;;21.09;68.73;101050.78;10371473;28;97832;-80
2023/08/11 06:08:00;;;;;;;4.07;1.70;;;;;;;21.34;68.37;101063.31;10369841;28;96897;-80
2023/08/11 06:13:10;;;;;;;1.80;1.30;;;;;;;21.45;68.17;101061.59;10371236;28;96942;-80
2023/08/11 06:18:13;;;;;;;4.00;2.00;;;;;;;21.62;68.02;101065.75;10370899;28;96773;-80
2023/08/11 06:23:17;;;;;;;2.88;1.75;;;;;;;21.76;67.86;101062.88;10370504;28;97755;-80
2023/08/11 06:28:21;;;;;;;4.85;2.40;;;;;;;21.88;67.36;101067.38;10370486;28;96727;-80
2023/08/11 06:33:24;;;;;;;3.83;2.22;;;;;;;22.06;67.44;101063.38;10370867;28;96894;-80
2023/08/11 06:38:33;;;;;;;4.68;1.85;;;;;;;22.05;67.44;101071.53;10370514;28;97250;-80
2023/08/11 06:43:40;;;;;;;3.03;1.83;;;;;;;21.93;68.35;101078.63;10363680;28;97590;-80
2023/08/11 06:48:43;;;;;;;3.10;1.75;;;;;;;22.00;68.45;101084.41;10370152;28;96701;-80
2023/08/11 06:53:46;;;;;;;3.28;2.10;;;;;;;21.81;69.24;101086.69;10370001;28;96550;-80
2023/08/11 06:58:52;;;;;;;3.45;1.92;;;;;;;21.96;68.85;101080.19;10368611;28;97277;-80
2023/08/11 07:03:55;;;;;;;2.78;1.63;;;;;;;21.92;69.14;101076.03;10370246;28;97670;-80
2023/08/11 07:09:01;;;;;;;2.28;1.73;;;;;;;21.96;69.09;101085.56;10370079;28;96937;-79
2023/08/11 07:14:06;;;;;;;2.10;1.58;;;;;;;22.00;69.01;101090.63;10369139;28;97036;-79
2023/08/11 07:19:09;;;;;;;3.38;1.70;;;;;;;22.05;68.94;101093.84;10369713;28;96604;-80
2023/08/11 07:24:13;;;;;;;2.47;1.50;;;;;;;22.32;67.82;101089.09;10369591;28;96716;-80
2023/08/11 07:29:18;;;;;;;3.80;1.50;;;;;;;22.38;67.73;101096.69;10369380;28;98558;-80
2023/08/11 07:34:23;;;;;;;2.55;1.90;;;;;;;22.64;67.29;101087.50;10376329;28;97180;-80
2023/08/11 07:39:28;;;;;;;3.00;1.60;;;;;;;22.83;66.93;101083.44;10376107;28;96804;-80
2023/08/11 07:44:34;;;;;;;2.28;1.55;;;;;;;23.02;66.41;101094.47;10376278;28;97216;-80
2023/08/11 07:49:37;;;;;;;3.05;1.67;;;;;;;23.13;66.32;101097.19;10350938;28;98007;-80
2023/08/11 07:54:40;;;;;;;2.70;1.70;;;;;;;23.13;66.52;101103.41;10334401;28;96813;-80
2023/08/11 07:59:45;;;;;;;2.50;1.40;;;;;;;23.56;65.21;101095.53;10333848;28;97164;-80
2023/08/11 08:04:49;;;;;;;3.95;1.90;;;;;;;23.95;64.46;101095.00;10334381;28;98433;-81
2023/08/11 08:09:52;;;;;;;2.70;1.70;;;;;;;24.07;64.30;101096.69;10334121;28;97469;-80
2023/08/11 08:14:58;;;;;;;4.20;1.47;;;;;;;24.03;64.25;101097.91;10333919;28;97751;-80
2023/08/11 08:20:01;;;;;;;2.40;1.58;;;;;;;24.24;63.64;101100.66;10333875;28;97453;-81
2023/08/11 08:25:06;;;;;;;3.37;1.77;;;;;;;24.55;62.86;101105.25;10334747;28;96729;-80
2023/08/11 08:30:12;;;;;;;1.98;1.55;;;;;;;24.86;62.13;101104.38;10333299;28;96822;-80
2023/08/11 08:35:15;;;;;;;4.85;1.70;;;;;;;25.40;60.25;101102.28;10333170;28;97983;-80
2023/08/11 08:40:18;;;;;;;1.77;1.30;;;;;;;25.60;59.80;101092.47;10353315;28;97598;-80
2023/08/11 08:45:24;;;;;;;3.17;1.37;;;;;;;25.75;59.30;101091.13;10373707;28;97111;-80
2023/08/11 08:50:29;;;;;;;5.35;1.83;;;;;;;26.31;57.70;101094.94;10373859;28;96533;-80
2023/08/11 08:55:32;;;;;;;3.85;1.40;;;;;;;26.65;56.62;101090.84;10367250;28;96773;-80
2023/08/11 09:00:37;;;;;;;7.17;1.60;;;;;;;27.06;56.02;101094.25;10332606;28;97921;-80
2023/08/11 09:05:41;;;;;;;3.40;1.23;;;;;;;27.01;55.54;101098.19;10332441;28;96856;-80
2023/08/11 09:10:44;;;;;;;1.63;1.07;;;;;;;27.29;54.42;101091.06;10331864;28;96881;-80
2023/08/11 09:15:50;;;;;;;2.03;1.20;;;;;;;27.77;53.07;101080.09;10332890;28;97200;-80
2023/08/11 09:20:54;;;;;;;2.40;1.30;;;;;;;27.88;52.91;101077.16;10331891;28;97599;-81
2023/08/11 09:25:57;;;;;;;1.98;1.27;;;;;;;28.06;52.32;101081.59;10331699;28;96863;-80
2023/08/11 09:31:02;;;;;;;2.53;1.20;;;;;;;28.16;52.20;101077.97;10330816;28;97379;-80
2023/08/11 09:36:05;;;;;;;2.53;1.50;;;;;;;28.38;51.47;101078.41;10331021;28;96770;-80
2023/08/11 09:41:09;;;;;;;1.75;1.23;;;;;;;28.58;51.73;101076.41;10360105;28;97277;-80
2023/08/11 09:46:14;;;;;;;3.90;1.80;;;;;;;28.66;51.68;101076.47;10371352;28;97113;-80
2023/08/11 09:51:30;;;;;;;3.13;1.45;;;;;;;29.09;51.27;101074.63;10371880;28;97034;-81
2023/08/11 09:56:36;;;;;;;3.33;1.23;;;;;;;29.37;50.76;101074.44;10371102;28;97185;-80
2023/08/11 10:01:44;;;;;;;2.67;1.40;;;;;;;29.47;50.27;101069.78;10371837;28;97137;-80
2023/08/11 10:06:58;;;;;;;2.85;1.50;;;;;;;29.55;49.98;101080.69;10371399;28;96664;-81
2023/08/11 10:12:03;;;;;;;2.42;1.40;;;;;;;29.90;49.67;101075.09;10371371;28;96629;-80
2023/08/11 10:17:09;;;;;;;3.80;1.48;;;;;;;29.41;49.56;101067.69;10410866;22;96799;-80
2023/08/11 10:22:12;;;;;;;3.17;1.40;;;;;;;29.73;50.00;101067.88;10391636;28;96618;-80
2023/08/11 10:27:16;;;;;;;;;;;;;;;30.23;46.89;101060.56;10371721;28;97818;-81
2023/08/11 10:32:25;;;;;;;4.32;1.40;;;;;;;30.75;47.32;101066.63;10371226;28;96729;-81
2023/08/11 10:37:30;;;;;;;2.08;1.35;;;;;;;30.88;46.38;101053.34;10371727;28;96760;-81
2023/08/11 10:42:36;;;;;;;2.88;1.20;;;;;;;30.88;45.84;101054.19;10411893;28;97574;-81
2023/08/11 10:47:45;;;;;;;2.90;1.30;;;;;;;31.06;45.91;101054.84;10412250;28;96644;-80
2023/08/11 10:52:55;;;;;;;2.50;1.35;;;;;;;31.09;46.21;101059.09;10412456;27;96797;-81
2023/08/11 10:58:10;;;;;;;2.65;1.63;;;;;;;31.35;45.63;101054.31;10377348;28;97001;-81
2023/08/11 11:03:15;;;;;;;4.63;1.90;;;;;;;31.54;45.83;101053.91;10369843;28;96853;-80
2023/08/11 11:08:19;;;;;;;2.40;1.23;;;;;;;31.61;45.15;101054.03;10376364;28;97209;-81
2023/08/11 11:13:22;;;;;;;3.25;1.30;;;;;;;31.82;43.98;101041.56;10377099;28;97149;-81
2023/08/11 11:18:32;;;;;;;5.03;1.27;;;;;;;31.87;44.67;101043.72;10396562;28;96710;-81
2023/08/11 11:23:36;;;;;;;1.70;1.25;;;;;;;32.04;43.71;101038.03;10418624;28;96968;-81
2023/08/11 11:28:39;;;;;;;3.33;1.20;;;;;;;31.95;43.78;101032.78;10410927;28;97141;-81
2023/08/11 11:33:45;;;;;;;1.65;1.15;;;;;;;32.14;44.06;101032.31;10376284;28;96921;-81
2023/08/11 11:38:52;;;;;;;2.72;1.20;;;;;;;32.16;44.03;101033.84;10376431;28;96673;-81
2023/08/11 11:43:55;;;;;;;3.20;1.30;;;;;;;32.10;43.38;101031.00;10403620;28;97752;-81
2023/08/11 11:49:02;;;;;;;3.03;1.20;;;;;;;32.11;43.05;101030.81;10383157;28;97463;-81
2023/08/11 11:54:21;;;;;;;2.57;1.10;;;;;;;32.26;42.59;101026.28;10375710;28;96780;-81
2023/08/11 11:59:29;;;;;;;1.65;1.02;;;;;;;32.61;42.73;101022.13;10375862;28;96628;-81
2023/08/11 12:04:34;;;;;;;1.92;1.25;;;;;;;32.55;42.54;101022.00;10375139;28;96829;-81
2023/08/11 12:09:50;;;;;;;1.77;0.80;;;;;;;32.36;42.26;101017.88;10375347;28;96748;-81
2023/08/11 12:15:00;;;;;;;2.58;1.30;;;;;;;32.45;42.56;101014.06;10375362;28;97640;-81
2023/08/11 12:20:08;;;;;;;1.92;1.00;;;;;;;32.37;41.94;101014.16;10366106;28;97020;-81
2023/08/11 12:25:11;;;;;;;1.80;1.25;;;;;;;32.75;42.14;101017.72;10370408;28;97176;-81
2023/08/11 12:30:15;;;;;;;2.70;1.25;;;;;;;32.85;41.64;101012.84;10374816;28;97293;-81
2023/08/11 12:35:26;;;;;;;1.33;1.05;;;;;;;32.90;41.27;101014.03;10374212;28;97611;-81
2023/08/11 12:40:30;;;;;;;2.95;1.33;;;;;;;32.99;41.38;101010.19;10336119;28;97747;-81
2023/08/11 12:45:33;;;;;;;2.05;1.23;;;;;;;32.98;41.59;101002.19;10332810;28;97580;-81
2023/08/11 12:50:38;;;;;;;1.83;1.45;;;;;;;33.17;41.80;101009.81;10332802;28;96702;-81
2023/08/11 12:55:44;;;;;;;2.25;1.20;;;;;;;33.21;41.08;101001.06;10331797;28;96776;-81
2023/08/11 13:00:47;;;;;;;1.98;1.20;;;;;;;33.32;41.04;100997.03;10332463;28;96608;-81
2023/08/11 13:05:52;;;;;;;2.90;1.42;;;;;;;33.59;40.43;100993.63;10331589;28;97871;-81
2023/08/11 13:10:55;;;;;;;3.40;1.38;;;;;;;33.60;40.18;100989.88;10332808;28;96634;-81
2023/08/11 13:15:59;;;;;;;2.17;1.30;;;;;;;33.59;40.03;100982.69;10331572;28;97369;-81
2023/08/11 13:21:04;;;;;;;1.60;1.15;;;;;;;33.64;39.86;100984.88;10372235;28;97237;-81
2023/08/11 13:26:07;;;;;;;1.42;1.27;;;;;;;33.77;39.95;100977.69;10410241;28;96783;-81
2023/08/11 13:31:11;;;;;;;1.10;1.00;;;;;;;33.92;39.38;100980.41;10377255;27;97354;-81
2023/08/11 13:36:18;;;;;;;2.25;1.25;;;;;;;33.94;39.03;100972.84;10372581;28;96601;-81
2023/08/11 13:41:21;;;;;;;1.35;0.80;;;;;;;33.99;38.83;100965.75;10372400;28;97764;-81
2023/08/11 13:46:24;;;;;;;2.45;1.10;;;;;;;34.31;38.71;100967.13;10371749;28;96626;-81
2023/08/11 13:51:29;;;;;;;1.52;1.23;;;;;;;34.21;38.51;100955.69;10371310;28;96694;-81
2023/08/11 13:56:33;;;;;;;1.92;1.17;;;;;;;33.98;38.26;100955.88;10371935;28;96611;-81
2023/08/11 14:01:37;;;;;;;1.27;0.95;;;;;;;34.29;38.45;100961.00;10372613;28;96830;-81
2023/08/11 14:06:41;;;;;;;2.33;1.13;;;;;;;34.54;38.38;100956.84;10371656;28;96824;-80
2023/08/11 14:11:45;;;;;;;1.48;0.85;;;;;;;34.44;38.65;100948.97;10371770;28;96763;-81
2023/08/11 14:16:48;;;;;;;2.60;1.00;;;;;;;34.36;38.72;100935.44;10381257;28;97012;-78
2023/08/11 14:21:55;;;;;;;2.55;1.52;;;;;;;34.54;38.77;100924.03;10412832;28;97491;-78
2023/08/11 14:26:59;;;;;;;1.95;1.05;;;;;;;34.10;39.15;100916.06;10412647;28;97757;-79
2023/08/11 14:32:02;;;;;;;2.92;1.15;;;;;;;34.53;39.57;100911.41;10412532;28;96840;-78
2023/08/11 14:37:27;;;;;;;2.13;1.20;;;;;;;34.53;39.90;100904.06;10410124;28;96715;-81
2023/08/11 14:42:30;;;;;;;1.92;1.45;;;;;;;34.43;40.33;100905.44;10419022;27;97130;-81
2023/08/11 14:47:33;;;;;;;3.13;1.50;;;;;;;34.69;40.20;100900.16;10419918;28;97520;-81
2023/08/11 14:52:39;;;;;;;3.80;1.25;;;;;;;34.42;40.68;100898.28;10412060;28;96833;-81
2023/08/11 14:57:42;;;;;;;3.00;1.52;;;;;;;34.62;40.52;100896.53;10377871;28;96670;-81
2023/08/11 15:02:48;;;;;;;2.30;1.30;;;;;;;34.54;40.74;100889.31;10377523;28;96792;-81
2023/08/11 15:07:53;;;;;;;2.33;1.15;;;;;;;34.54;40.54;100883.84;10377640;28;97181;-81
2023/08/11 15:12:57;;;;;;;1.20;1.00;;;;;;;34.70;40.57;100882.69;10378527;28;96704;-81
2023/08/11 15:18:02;;;;;;;2.55;1.23;;;;;;;34.53;40.21;100876.72;10396734;28;97114;-81
2023/08/11 15:23:10;;;;;;;1.48;1.00;;;;;;;34.50;39.86;100876.28;10418612;28;97162;-80
2023/08/11 15:28:13;;;;;;;3.47;1.38;;;;;;;34.39;40.52;100879.50;10396913;28;97178;-81
2023/08/11 15:33:18;;;;;;;1.27;0.90;;;;;;;34.41;40.38;100864.63;10376805;28;97892;-81
2023/08/11 15:38:27;;;;;;;1.30;0.90;;;;;;;34.36;40.59;100856.16;10376236;28;96790;-81
2023/08/11 15:43:31;;;;;;;2.22;0.98;;;;;;;34.14;40.74;100860.00;10377081;28;97529;-81
2023/08/11 15:48:35;;;;;;;1.38;0.90;;;;;;;34.22;40.88;100857.13;10375830;28;96888;-81
2023/08/11 15:53:39;;;;;;;1.75;0.95;;;;;;;34.20;41.27;100853.72;10375117;28;97440;-81
2023/08/11 15:58:43;;;;;;;1.55;0.73;;;;;;;33.86;41.75;100858.22;10375622;28;97638;-80
2023/08/11 16:03:48;;;;;;;1.35;0.90;;;;;;;33.80;42.04;100853.56;10377019;28;96616;-81
2023/08/11 16:08:53;;;;;;;0.77;0.60;;;;;;;33.54;42.65;100848.66;10375472;28;96663;-81
2023/08/11 16:13:56;;;;;;;2.25;0.90;;;;;;;33.30;43.55;100852.59;10375318;28;97780;-81
2023/08/11 16:18:59;;;;;;;2.78;1.08;;;;;;;33.12;43.77;100849.41;10401101;28;97943;-81
2023/08/11 16:24:05;;;;;;;3.10;1.10;;;;;;;32.90;44.63;100849.56;10416474;28;97868;-80
2023/08/11 16:29:08;;;;;;;0.95;0.55;;;;;;;32.82;44.76;100855.09;10416558;28;97433;-81
2023/08/11 16:34:11;;;;;;;2.60;0.80;;;;;;;32.80;44.56;100848.97;10415496;28;97078;-81
2023/08/11 16:39:16;;;;;;;1.58;1.00;;;;;;;32.77;44.76;100857.53;10416195;28;97285;-80
2023/08/11 16:44:19;;;;;;;1.02;0.80;;;;;;;32.65;44.70;100849.00;10416157;28;97520;-81
2023/08/11 16:49:22;;;;;;;1.73;1.17;;;;;;;32.57;45.02;100861.88;10415932;28;96793;-81
2023/08/11 16:54:29;;;;;;;2.30;0.82;;;;;;;32.35;44.88;100860.91;10415116;28;96803;-80
2023/08/11 16:59:32;;;;;;;2.42;1.05;;;;;;;32.25;45.27;100857.56;10415129;28;97282;-81
2023/08/11 17:04:35;;;;;;;1.38;0.77;;;;;;;32.24;45.32;100861.31;10413869;28;96975;-80
2023/08/11 17:09:40;;;;;;;1.48;0.82;;;;;;;32.12;45.79;100862.78;10413060;28;96755;-80
2023/08/11 17:14:46;;;;;;;2.10;0.85;;;;;;;32.15;45.28;100859.72;10414926;28;97078;-80
2023/08/11 17:19:50;;;;;;;2.20;0.75;;;;;;;32.09;45.90;100855.84;10445604;27;96774;-81
2023/08/11 17:24:56;;;;;;;1.65;0.80;;;;;;;31.96;45.23;100857.50;10424589;27;98449;-78
2023/08/11 17:29:59;;;;;;;1.05;0.68;;;;;;;31.99;45.27;100855.25;10395909;27;97060;-74
2023/08/11 17:35:03;;;;;;;1.95;0.63;;;;;;;32.01;45.18;100855.06;10391242;27;96889;-78
2023/08/11 17:40:09;;;;;;;2.42;0.82;;;;;;;32.05;45.23;100849.06;10383078;28;97614;-74
2023/08/11 17:45:13;;;;;;;3.90;1.05;;;;;;;31.96;45.61;100843.91;10392634;27;97627;-73
2023/08/11 17:50:17;;;;;;;3.05;1.00;;;;;;;31.87;46.13;100843.13;10388146;28;96910;-74
2023/08/11 17:55:22;;;;;;;2.17;0.90;;;;;;;31.91;46.22;100838.16;10407510;27;96835;-74
2023/08/11 18:00:25;;;;;;;1.92;0.98;;;;;;;31.87;46.65;100850.44;10385411;28;97715;-72
2023/08/11 18:05:28;;;;;;;1.73;0.80;;;;;;;31.58;46.79;100847.56;10396776;27;97096;-73
2023/08/11 18:10:35;;;;;;;1.58;0.85;;;;;;;31.50;47.49;100842.16;10394013;28;98675;-73
2023/08/11 18:15:38;;;;;;;2.33;0.90;;;;;;;31.30;48.12;100849.97;10399301;28;96961;-72
2023/08/11 18:20:41;;;;;;;;;;;;;;;31.09;48.41;100850.56;10392437;27;98419;-72
2023/08/11 18:25:45;;;;;;;1.53;0.80;;;;;;;30.94;48.63;100852.31;10396265;27;98764;-73
2023/08/11 18:30:50;;;;;;;3.92;0.93;;;;;;;30.76;49.37;100856.31;10402811;28;99032;-74
2023/08/11 18:35:53;;;;;;;3.75;0.88;;;;;;;30.62;49.69;100867.88;10398590;28;97282;-72
2023/08/11 18:40:57;;;;;;;;;;;;;;;30.39;50.78;100862.31;10395586;28;96802;-72
2023/08/11 18:46:03;;;;;;;1.83;1.00;;;;;;;30.20;50.93;100865.41;10397541;28;96838;-74
2023/08/11 18:51:07;;;;;;;2.17;1.13;;;;;;;30.10;51.36;100875.59;10385602;28;97531;-75
2023/08/11 18:56:11;;;;;;;;;;;;;;;29.85;52.27;100888.28;10404626;28;96899;-77
2023/08/11 19:01:14;;;;;;;2.38;1.13;;;;;;;29.54;52.68;100903.50;10392727;28;97669;-77
2023/08/11 19:06:18;;;;;;;2.63;0.90;;;;;;;29.35;53.50;100900.22;10398053;28;96894;-78
2023/08/11 19:11:23;;;;;;;1.92;1.17;;;;;;;29.11;54.31;100901.84;10403408;28;98550;-77
2023/08/11 19:16:27;;;;;;;3.88;1.00;;;;;;;28.99;54.79;100919.41;10391509;27;98322;-78
2023/08/11 19:21:30;;;;;;;1.88;1.08;;;;;;;28.77;55.35;100932.63;10422252;27;96910;-74
2023/08/11 19:26:35;;;;;;;2.42;1.00;;;;;;;28.59;55.70;100942.66;10424967;27;96796;-77
2023/08/11 19:31:38;;;;;;;3.00;1.23;;;;;;;28.44;56.46;100947.81;10415139;27;96923;-74
2023/08/11 19:36:43;;;;;;;2.20;1.08;;;;;;;28.29;56.75;100952.09;10422142;27;97453;-78
2023/08/11 19:41:47;;;;;;;3.13;1.00;;;;;;;28.16;57.17;100951.63;10412919;27;96752;-77
2023/08/11 19:46:51;;;;;;;2.33;0.93;;;;;;;28.08;57.49;100957.78;10403767;28;96839;-77
2023/08/11 19:51:54;;;;;;;2.33;1.08;;;;;;;27.95;57.54;100968.16;10400706;28;96846;-77
2023/08/11 19:56:59;;;;;;;1.63;0.90;;;;;;;27.98;57.32;100972.41;10418186;27;96807;-77
2023/08/11 20:02:02;;;;;;;2.85;1.45;;;;;;;27.89;57.82;100981.47;10402835;28;97855;-77
2023/08/11 20:07:05;;;;;;;1.85;1.17;;;;;;;27.87;57.98;100994.31;10400611;27;97028;-78
2023/08/11 20:12:10;;;;;;;4.53;1.48;;;;;;;27.74;58.39;101000.06;10411275;27;97699;-77
2023/08/11 20:17:14;;;;;;;1.20;0.90;;;;;;;27.63;58.77;101002.13;10399813;28;98939;-78
2023/08/11 20:22:17;;;;;;;3.15;1.00;;;;;;;27.60;58.87;101018.63;10371119;28;96848;-77
2023/08/11 20:27:22;;;;;;;2.17;0.90;;;;;;;27.53;59.22;101022.97;10385443;28;96966;-76
2023/08/11 20:32:25;;;;;;;3.38;1.80;;;;;;;27.36;59.73;101021.88;10368649;28;96782;-76
2023/08/11 20:37:28;;;;;;;4.30;1.35;;;;;;;27.12;60.56;101024.25;10393419;27;96984;-76
2023/08/11 20:42:34;;;;;;;1.95;1.20;;;;;;;27.13;60.66;101034.06;10364579;28;96758;-77
2023/08/11 20:47:37;;;;;;;2.38;0.90;;;;;;;27.08;60.36;101047.16;10366473;28;97425;-76
2023/08/11 20:52:41;;;;;;;2.13;1.10;;;;;;;27.06;60.77;101046.44;10375223;28;96708;-76
2023/08/11 20:57:48;;;;;;;2.15;1.00;;;;;;;27.04;61.07;101044.91;10371770;28;98446;-76
2023/08/11 21:02:51;;;;;;;2.05;1.00;;;;;;;26.94;61.29;101056.56;10375418;28;97201;-76
2023/08/11 21:07:54;;;;;;;2.60;1.17;;;;;;;27.04;60.98;101058.41;10357182;28;96870;-76
2023/08/11 21:12:59;;;;;;;1.30;0.97;;;;;;;26.98;61.35;101066.09;10374635;28;96922;-76
2023/08/11 21:18:02;;;;;;;3.58;1.25;;;;;;;27.02;60.93;101063.94;10379824;28;96999;-77
2023/08/11 21:23:06;;;;;;;2.40;1.23;;;;;;;26.92;61.70;101074.75;10360492;28;97585;-75
2023/08/11 21:28:11;;;;;;;2.10;1.25;;;;;;;26.89;61.33;101061.53;10360876;28;97036;-76
2023/08/11 21:33:14;;;;;;;2.45;1.20;;;;;;;26.75;61.96;101056.59;10363735;28;97902;-76
2023/08/11 21:38:17;;;;;;;3.92;1.40;;;;;;;26.72;62.12;101054.19;10368582;28;96865;-76
2023/08/11 21:43:22;;;;;;;2.88;1.38;;;;;;;26.69;62.16;101059.88;10363003;28;96861;-76
2023/08/11 21:48:25;;;;;;;1.98;1.10;;;;;;;26.45;63.10;101053.22;10377191;28;97563;-76
2023/08/11 21:53:30;;;;;;;2.15;1.00;;;;;;;26.47;62.55;101054.75;10371917;28;98852;-76
2023/08/11 21:58:35;;;;;;;3.30;1.53;;;;;;;26.46;62.72;101047.66;10350866;28;98699;-76
2023/08/11 22:03:38;;;;;;;1.70;1.13;;;;;;;26.46;62.94;101050.38;10342647;28;97463;-76
2023/08/11 22:08:41;;;;;;;3.63;1.30;;;;;;;26.43;63.03;101045.25;10361227;28;97039;-76
2023/08/11 22:13:46;;;;;;;2.67;1.08;;;;;;;26.26;63.24;101040.53;10357588;28;96980;-76
2023/08/11 22:18:50;;;;;;;2.15;1.10;;;;;;;26.30;63.48;101051.91;10381601;28;98447;-76
2023/08/11 22:23:53;;;;;;;2.73;1.10;;;;;;;26.25;63.12;101064.94;10369887;28;96942;-76
2023/08/11 22:28:58;;;;;;;3.83;1.50;;;;;;;26.22;63.56;101063.41;10367802;28;98812;-76
2023/08/11 22:34:01;;;;;;;2.92;1.27;;;;;;;26.07;63.74;101069.34;10368692;28;98884;-76
2023/08/11 22:39:05;;;;;;;3.10;1.27;;;;;;;26.05;63.50;101071.31;10363578;28;96915;-72
2023/08/11 22:44:09;;;;;;;4.60;1.25;;;;;;;25.97;63.62;101077.41;10371432;28;96951;-72
2023/08/11 22:49:13;;;;;;;2.33;1.17;;;;;;;26.09;63.37;101079.00;10413390;22;98633;-72
2023/08/11 22:54:16;;;;;;;3.65;1.75;;;;;;;25.86;64.09;101081.09;10466816;27;96782;-72
2023/08/11 22:59:21;;;;;;;2.80;1.23;;;;;;;25.74;64.43;101092.94;10457655;27;96765;-72
2023/08/11 23:04:24;;;;;;;1.77;1.00;;;;;;;25.73;64.29;101093.09;10445486;27;98749;-72
2023/08/11 23:09:28;;;;;;;1.90;1.02;;;;;;;25.68;64.29;101087.22;10445664;27;96815;-72
2023/08/11 23:14:33;;;;;;;5.07;1.20;;;;;;;25.57;64.68;101079.25;10496847;27;96643;-72
2023/08/11 23:19:36;;;;;;;3.03;1.20;;;;;;;25.57;64.50;101069.31;10461786;27;96938;-72
2023/08/11 23:24:40;;;;;;;2.30;1.17;;;;;;;25.69;64.30;101083.59;10424241;27;96849;-72